Time;durP1;ratioP1;P1;durP2;ratioP2;P2;SDS_P1;SDS_P2;PMS_P1;PMS_P2;Temp;Humidity;BMP_temperature;BMP_pressure;BME280_temperature;BME280_humidity;BME280_pressure;Samples;Min_cycle;Max_cycle;Signal;HPM_P1;HPM_P2
2021/08/21 00:00:27;;;;;;;11.32;4.93;;;;;;;25.21;53.93;101028.38;5030977;28;20026;-72
2021/08/21 00:02:53;;;;;;;7.22;3.50;;;;;;;25.20;54.10;101038.78;5032277;28;20146;-73
2021/08/21 00:05:18;;;;;;;12.05;3.92;;;;;;;25.32;53.39;101034.75;5032177;28;20104;-74
2021/08/21 00:07:45;;;;;;;9.73;3.85;;;;;;;25.37;53.17;101035.09;5032163;28;20391;-73
2021/08/21 00:10:12;;;;;;;9.80;4.47;;;;;;;25.32;53.34;101031.94;5030874;28;20029;-74
2021/08/21 00:12:38;;;;;;;7.88;3.80;;;;;;;25.25;53.91;101029.97;5032088;28;20021;-74
2021/08/21 00:15:07;;;;;;;8.38;2.97;;;;;;;25.33;53.29;101039.13;5032019;28;20483;-74
2021/08/21 00:17:33;;;;;;;13.53;3.13;;;;;;;25.42;53.35;101037.47;5032016;28;20051;-73
2021/08/21 00:19:59;;;;;;;5.85;2.90;;;;;;;25.59;52.68;101037.78;5031970;28;20262;-73
2021/08/21 00:22:24;;;;;;;12.75;4.97;;;;;;;25.85;51.60;101028.06;5032013;28;20029;-74
2021/08/21 00:24:50;;;;;;;7.05;2.72;;;;;;;25.81;52.02;101032.88;5031929;28;20025;-74
2021/08/21 00:27:15;;;;;;;10.90;4.18;;;;;;;25.96;51.26;101029.56;5031895;28;20055;-74
2021/08/21 00:29:41;;;;;;;6.90;3.05;;;;;;;26.05;51.09;101036.69;5031766;28;20056;-74
2021/08/21 00:32:07;;;;;;;12.55;3.13;;;;;;;25.64;52.09;101031.75;5031857;28;20034;-73
2021/08/21 00:34:32;;;;;;;9.98;5.00;;;;;;;25.59;52.62;101026.59;5031617;28;20112;-74
2021/08/21 00:36:58;;;;;;;8.88;4.97;;;;;;;25.49;52.73;101038.63;5031762;28;20041;-73
2021/08/21 00:39:24;;;;;;;10.30;3.33;;;;;;;25.56;52.54;101025.41;5031717;28;20444;-73
2021/08/21 00:41:50;;;;;;;8.45;3.35;;;;;;;25.52;52.79;101021.81;5031719;28;20070;-73
2021/08/21 00:44:16;;;;;;;16.52;5.35;;;;;;;25.49;52.94;101024.66;5031675;28;20081;-73
2021/08/21 00:47:19;;;;;;;7.05;2.80;;;;;;;25.54;52.62;101029.81;5031648;28;20117;-73
2021/08/21 00:49:50;;;;;;;11.15;3.28;;;;;;;25.52;52.81;101030.22;5031798;28;20030;-74
2021/08/21 00:52:25;;;;;;;7.05;3.13;;;;;;;25.49;52.83;101027.44;5030333;28;20025;-73
2021/08/21 00:54:55;;;;;;;12.57;2.90;;;;;;;25.40;53.20;101025.91;5031420;28;20022;-74
2021/08/21 00:57:21;;;;;;;9.13;4.32;;;;;;;25.53;53.03;101025.41;5031482;28;20086;-74
2021/08/21 00:59:49;;;;;;;12.27;4.47;;;;;;;25.51;53.17;101025.03;5031483;28;20055;-74
2021/08/21 01:02:15;;;;;;;9.02;3.17;;;;;;;25.46;53.07;101024.25;5031370;28;20087;-73
2021/08/21 01:04:46;;;;;;;6.70;3.38;;;;;;;25.44;53.41;101025.88;5031373;28;20025;-73
2021/08/21 01:07:17;;;;;;;12.48;3.53;;;;;;;25.61;52.69;101029.75;5029654;28;20373;-73
2021/08/21 01:09:44;;;;;;;9.32;3.42;;;;;;;25.60;52.88;101028.97;5030683;28;20075;-73
2021/08/21 01:12:15;;;;;;;13.00;6.00;;;;;;;25.55;53.00;101037.00;5031144;28;20029;-73
2021/08/21 01:14:41;;;;;;;6.15;4.53;;;;;;;25.62;52.71;101039.78;5031165;28;20089;-73
2021/08/21 01:17:07;;;;;;;6.20;3.83;;;;;;;25.59;52.87;101032.97;5031146;28;20026;-74
2021/08/21 01:19:37;;;;;;;9.00;3.30;;;;;;;25.60;52.63;101036.56;5031091;28;20052;-73
2021/08/21 01:22:04;;;;;;;7.38;4.00;;;;;;;25.65;52.88;101036.16;5031051;28;20060;-73
2021/08/21 01:24:30;;;;;;;8.02;3.38;;;;;;;25.62;52.77;101036.97;5030984;28;20041;-73
2021/08/21 01:26:57;;;;;;;7.93;3.47;;;;;;;25.61;52.85;101043.75;5031095;28;20037;-73
2021/08/21 01:29:24;;;;;;;10.35;3.80;;;;;;;25.62;52.67;101048.16;5030818;28;20050;-74
2021/08/21 01:31:50;;;;;;;8.90;3.53;;;;;;;25.65;52.92;101052.94;5030878;28;20030;-74
2021/08/21 01:34:17;;;;;;;12.73;3.55;;;;;;;25.63;53.06;101049.75;5030870;28;20044;-73
2021/08/21 01:36:46;;;;;;;5.65;3.75;;;;;;;25.70;52.53;101049.72;5030866;28;20039;-74
2021/08/21 01:39:12;;;;;;;10.27;4.30;;;;;;;25.72;52.56;101052.94;5030833;28;20078;-74
2021/08/21 01:41:40;;;;;;;14.48;3.55;;;;;;;25.75;52.29;101054.09;5030744;28;20022;-74
2021/08/21 01:44:10;;;;;;;8.23;3.88;;;;;;;25.72;52.48;101047.31;5029405;28;20026;-74
2021/08/21 01:46:36;;;;;;;9.73;3.63;;;;;;;25.66;52.98;101043.31;5030645;28;20043;-74
2021/08/21 01:49:03;;;;;;;10.65;2.72;;;;;;;25.69;52.62;101050.88;5030747;28;20302;-74
2021/08/21 01:51:32;;;;;;;7.85;3.88;;;;;;;25.70;52.66;101046.91;5030579;28;20031;-74
2021/08/21 01:53:58;;;;;;;5.78;2.97;;;;;;;25.70;52.30;101038.53;5030583;28;20511;-73
2021/08/21 01:56:25;;;;;;;8.25;5.47;;;;;;;25.89;52.04;101037.22;5030426;28;20029;-73
2021/08/21 01:58:51;;;;;;;5.90;3.10;;;;;;;25.94;51.67;101043.19;5030515;28;20061;-73
2021/08/21 02:01:17;;;;;;;11.85;2.80;;;;;;;25.80;51.60;101039.69;5030455;28;20436;-73
2021/08/21 02:03:46;;;;;;;8.70;3.20;;;;;;;25.80;51.67;101032.06;5030371;28;20064;-74
2021/08/21 02:06:14;;;;;;;7.47;3.33;;;;;;;25.77;51.46;101032.91;5029100;28;20373;-74
2021/08/21 02:08:40;;;;;;;6.28;3.00;;;;;;;25.73;51.67;101037.72;5030373;28;20051;-73
2021/08/21 02:11:06;;;;;;;7.38;5.25;;;;;;;25.68;51.73;101035.31;5030362;28;20628;-73
2021/08/21 02:13:32;;;;;;;7.28;3.00;;;;;;;25.54;51.95;101035.41;5030386;28;20021;-73
2021/08/21 02:15:59;;;;;;;9.70;3.40;;;;;;;25.51;52.10;101039.81;5028829;28;20037;-73
2021/08/21 02:18:24;;;;;;;9.77;3.83;;;;;;;25.50;51.85;101029.03;5030237;28;20021;-73
2021/08/21 02:20:50;;;;;;;7.88;3.83;;;;;;;25.38;52.34;101028.28;5028663;28;20043;-73
2021/08/21 02:23:16;;;;;;;4.72;2.80;;;;;;;25.36;52.56;101027.91;5030191;28;20029;-73
2021/08/21 02:25:42;;;;;;;10.68;3.53;;;;;;;25.38;52.13;101042.28;5030254;28;20032;-73
2021/08/21 02:28:09;;;;;;;7.35;3.55;;;;;;;25.37;51.93;101026.69;5029877;28;20041;-73
2021/08/21 02:30:37;;;;;;;5.20;4.38;;;;;;;25.36;52.17;101027.09;5030027;28;20112;-73
2021/08/21 02:33:04;;;;;;;9.93;4.88;;;;;;;25.34;52.19;101035.91;5028801;28;20411;-73
2021/08/21 02:35:30;;;;;;;7.57;5.00;;;;;;;25.35;51.98;101043.09;5029860;28;20493;-73
2021/08/21 02:37:56;;;;;;;10.00;8.85;;;;;;;25.34;51.92;101035.91;5029922;28;20060;-73
2021/08/21 02:40:22;;;;;;;8.10;3.83;;;;;;;25.35;52.01;101029.09;5029944;28;20041;-73
2021/08/21 02:42:50;;;;;;;8.77;3.80;;;;;;;25.32;51.90;101017.94;5029882;28;20033;-73
2021/08/21 02:45:16;;;;;;;9.52;4.22;;;;;;;25.24;52.03;101022.78;5029813;28;20018;-73
2021/08/21 02:47:42;;;;;;;7.25;4.00;;;;;;;25.23;51.85;101021.16;5029791;28;20024;-73
2021/08/21 02:50:08;;;;;;;6.18;4.05;;;;;;;25.25;51.71;101029.19;5029750;28;20059;-73
2021/08/21 02:52:34;;;;;;;8.93;7.85;;;;;;;25.22;51.69;101019.56;5029770;28;20022;-73
2021/08/21 02:54:59;;;;;;;8.48;3.88;;;;;;;25.22;51.41;101019.56;5029598;28;20381;-73
2021/08/21 02:57:25;;;;;;;10.15;3.78;;;;;;;25.22;51.51;101021.56;5029718;28;20030;-73
2021/08/21 02:59:51;;;;;;;7.30;3.70;;;;;;;25.22;51.06;101013.19;5029651;28;20021;-73
2021/08/21 03:02:16;;;;;;;9.98;9.15;;;;;;;25.17;51.48;101022.81;5029615;28;20101;-73
2021/08/21 03:04:42;;;;;;;11.48;3.35;;;;;;;25.16;51.03;101015.59;5029858;28;20040;-73
2021/08/21 03:07:07;;;;;;;6.25;4.45;;;;;;;25.08;51.18;101023.22;5029834;28;20029;-73
2021/08/21 03:09:33;;;;;;;6.55;3.25;;;;;;;25.11;51.49;101024.44;5029537;28;20379;-73
2021/08/21 03:11:58;;;;;;;7.93;2.55;;;;;;;25.11;50.95;101016.03;5029551;28;20033;-74
2021/08/21 03:14:24;;;;;;;5.47;3.25;;;;;;;25.07;51.22;101023.63;5029349;28;20022;-73
2021/08/21 03:16:50;;;;;;;9.00;3.42;;;;;;;25.00;51.33;101013.25;5028240;28;20045;-73
2021/08/21 03:19:15;;;;;;;8.05;3.85;;;;;;;24.99;51.32;101011.66;5029418;28;20023;-73
2021/08/21 03:21:41;;;;;;;9.68;3.47;;;;;;;25.06;50.95;101017.25;5029399;28;20025;-73
2021/08/21 03:24:06;;;;;;;8.80;4.22;;;;;;;25.07;50.92;101013.25;5029313;28;20026;-73
2021/08/21 03:26:32;;;;;;;8.98;8.00;;;;;;;25.04;50.92;101007.69;5028063;28;20039;-73
2021/08/21 03:28:58;;;;;;;14.93;13.70;;;;;;;25.00;50.85;101001.28;5029044;28;20136;-74
2021/08/21 03:31:24;;;;;;;8.73;2.95;;;;;;;24.84;51.46;101015.69;5029144;28;20064;-73
2021/08/21 03:33:49;;;;;;;10.57;6.07;;;;;;;24.86;51.01;101007.69;5032824;28;20021;-73
2021/08/21 03:36:15;;;;;;;9.27;3.33;;;;;;;24.83;51.40;101009.31;5032629;28;20029;-73
2021/08/21 03:38:41;;;;;;;7.05;4.57;;;;;;;24.88;51.37;101008.91;5032728;28;20025;-73
2021/08/21 03:41:07;;;;;;;4.97;3.22;;;;;;;24.97;50.94;101004.88;5032583;28;20069;-74
2021/08/21 03:43:33;;;;;;;12.60;4.53;;;;;;;24.86;51.08;101014.13;5032520;28;20030;-73
2021/08/21 03:45:59;;;;;;;5.88;3.58;;;;;;;24.87;51.01;101010.13;5031375;28;20060;-73
2021/08/21 03:48:24;;;;;;;8.90;3.72;;;;;;;24.99;51.01;101002.47;5032516;28;20026;-73
2021/08/21 03:50:50;;;;;;;6.80;5.57;;;;;;;24.98;51.06;101003.69;5032500;28;20040;-73
2021/08/21 03:53:16;;;;;;;11.93;4.18;;;;;;;24.90;50.88;101006.50;5032445;28;20029;-73
2021/08/21 03:55:41;;;;;;;9.05;3.63;;;;;;;24.94;51.02;100995.31;5032333;28;20028;-74
2021/08/21 03:58:07;;;;;;;9.07;3.75;;;;;;;24.85;51.17;101009.69;5032315;28;20029;-73
2021/08/21 04:00:32;;;;;;;6.05;4.00;;;;;;;24.86;51.03;101002.94;5032408;28;20037;-73
2021/08/21 04:02:58;;;;;;;10.75;3.20;;;;;;;24.85;51.13;101006.91;5032286;28;20396;-73
2021/08/21 04:05:26;;;;;;;9.77;3.95;;;;;;;24.97;50.66;101002.09;5032268;28;20037;-73
2021/08/21 04:07:51;;;;;;;11.80;4.10;;;;;;;24.91;50.71;101008.09;5032196;28;20036;-73
2021/08/21 04:10:17;;;;;;;14.48;13.05;;;;;;;24.83;50.86;101002.94;5032528;28;20029;-74
2021/08/21 04:12:43;;;;;;;6.60;2.97;;;;;;;24.81;50.98;100992.16;5032167;28;20458;-73
2021/08/21 04:15:08;;;;;;;6.68;4.07;;;;;;;24.79;51.08;101002.97;5032030;28;20029;-73
2021/08/21 04:17:34;;;;;;;14.48;8.10;;;;;;;24.78;51.30;101004.13;5032094;28;20446;-73
2021/08/21 04:20:03;;;;;;;8.90;4.25;;;;;;;24.80;51.07;101003.75;5032087;28;20037;-73
2021/08/21 04:22:28;;;;;;;12.20;7.32;;;;;;;24.76;50.88;101002.94;5032020;28;20017;-73
2021/08/21 04:24:54;;;;;;;11.20;10.18;;;;;;;24.81;51.14;100994.97;5031968;28;20536;-73
2021/08/21 04:27:20;;;;;;;7.05;4.40;;;;;;;24.79;51.07;101002.16;5031752;28;20588;-74
2021/08/21 04:29:46;;;;;;;11.13;5.82;;;;;;;24.83;50.91;101000.94;5022509;28;20105;-74
2021/08/21 04:32:12;;;;;;;8.80;7.75;;;;;;;24.82;50.74;101002.13;5012021;28;20109;-73
2021/08/21 04:34:37;;;;;;;8.82;5.72;;;;;;;24.75;50.84;101002.16;5027263;28;20034;-74
2021/08/21 04:37:04;;;;;;;9.85;3.72;;;;;;;24.78;50.65;101000.53;5012045;28;20033;-73
2021/08/21 04:39:30;;;;;;;12.15;9.27;;;;;;;24.77;50.94;101005.34;5012058;28;20105;-73
2021/08/21 04:41:55;;;;;;;7.78;3.70;;;;;;;24.80;50.94;100993.38;5011972;28;20058;-73
2021/08/21 04:44:21;;;;;;;9.63;4.18;;;;;;;24.72;50.97;101002.19;5011929;28;20025;-73
2021/08/21 04:46:46;;;;;;;6.70;4.18;;;;;;;24.72;50.74;100991.81;5011933;28;20037;-73
2021/08/21 04:49:12;;;;;;;8.23;7.40;;;;;;;24.77;50.82;100999.75;5011842;28;20392;-73
2021/08/21 04:51:37;;;;;;;9.55;7.95;;;;;;;24.78;50.86;101006.94;5011874;28;20483;-73
2021/08/21 04:54:03;;;;;;;9.05;4.72;;;;;;;24.73;50.85;101003.78;5011842;28;20503;-73
2021/08/21 04:56:29;;;;;;;11.63;3.90;;;;;;;24.75;50.58;101002.16;5011651;28;20034;-73
2021/08/21 04:58:55;;;;;;;9.05;4.55;;;;;;;24.79;50.82;101004.97;5011769;28;20030;-73
2021/08/21 05:01:21;;;;;;;11.27;8.43;;;;;;;24.76;50.45;101003.75;5011665;28;20022;-73
2021/08/21 05:03:47;;;;;;;11.35;10.00;;;;;;;24.71;50.92;101003.34;5011560;28;20515;-73
2021/08/21 05:06:13;;;;;;;11.48;6.57;;;;;;;24.65;50.88;101010.59;5011571;28;20030;-73
2021/08/21 05:08:38;;;;;;;10.85;4.50;;;;;;;24.62;51.14;101004.56;5011523;28;20036;-73
2021/08/21 05:11:04;;;;;;;6.72;3.35;;;;;;;24.71;50.68;101011.75;5011541;28;20030;-73
2021/08/21 05:13:31;;;;;;;8.98;4.20;;;;;;;24.73;50.88;101012.94;5011529;28;20500;-74
2021/08/21 05:15:57;;;;;;;8.60;3.20;;;;;;;24.76;50.68;101009.34;5010148;28;20369;-73
2021/08/21 05:18:34;;;;;;;7.63;4.20;;;;;;;24.65;51.05;101010.59;5010169;28;20419;-72
2021/08/21 05:21:06;;;;;;;14.38;8.43;;;;;;;24.70;51.10;101013.75;5010164;28;20026;-73
2021/08/21 05:23:34;;;;;;;9.63;4.03;;;;;;;24.66;51.19;101004.59;5011389;28;20026;-72
2021/08/21 05:26:00;;;;;;;14.18;10.68;;;;;;;24.79;50.69;101013.34;5011298;28;20018;-72
2021/08/21 05:28:25;;;;;;;11.35;8.50;;;;;;;24.70;51.04;101016.53;5011080;28;20057;-71
2021/08/21 05:30:51;;;;;;;15.95;11.75;;;;;;;24.68;51.36;101013.34;5011230;28;20063;-73
2021/08/21 05:33:18;;;;;;;9.90;8.27;;;;;;;24.60;51.55;101015.38;5011426;28;20473;-72
2021/08/21 05:35:44;;;;;;;10.05;4.97;;;;;;;24.72;51.55;101011.34;5011077;28;20032;-73
2021/08/21 05:38:10;;;;;;;8.63;6.55;;;;;;;24.87;50.79;101015.69;5011085;28;20472;-73
2021/08/21 05:40:36;;;;;;;11.75;4.63;;;;;;;24.94;50.68;101014.06;5011335;28;20026;-72
2021/08/21 05:43:02;;;;;;;9.95;3.65;;;;;;;24.98;50.86;101021.25;5011069;28;20057;-73
2021/08/21 05:45:29;;;;;;;12.35;5.25;;;;;;;24.91;51.07;101024.84;5009712;28;20030;-73
2021/08/21 05:47:55;;;;;;;16.35;6.85;;;;;;;24.87;51.35;101015.69;5010943;28;20082;-73
2021/08/21 05:50:21;;;;;;;9.38;8.45;;;;;;;24.91;51.25;101013.69;5010962;28;20380;-73
2021/08/21 05:52:48;;;;;;;9.85;8.88;;;;;;;24.92;51.43;101000.50;5010895;28;20022;-73
2021/08/21 05:55:13;;;;;;;12.70;8.82;;;;;;;24.96;51.25;101020.06;5010259;28;20396;-73
2021/08/21 05:57:39;;;;;;;11.55;9.40;;;;;;;24.91;51.36;101022.06;5010939;28;20022;-73
2021/08/21 06:00:06;;;;;;;8.52;3.53;;;;;;;24.97;51.58;101024.44;5010824;28;20562;-73
2021/08/21 06:02:32;;;;;;;7.35;3.22;;;;;;;24.90;51.78;101028.06;5010777;28;20480;-73
2021/08/21 06:04:57;;;;;;;6.75;3.97;;;;;;;24.94;51.61;101025.25;5010708;28;20033;-73
2021/08/21 06:07:23;;;;;;;11.15;5.07;;;;;;;24.92;51.75;101020.84;5010678;28;20062;-73
2021/08/21 06:09:48;;;;;;;9.10;4.13;;;;;;;24.99;51.43;101022.03;5010678;28;20030;-73
2021/08/21 06:12:14;;;;;;;5.93;3.58;;;;;;;25.02;51.49;101024.84;5010664;28;20479;-73
2021/08/21 06:14:40;;;;;;;5.47;2.15;;;;;;;25.03;51.64;101026.47;5010510;28;20030;-73
2021/08/21 06:17:07;;;;;;;6.65;4.63;;;;;;;24.97;51.81;101030.03;5010512;28;20034;-73
2021/08/21 06:19:33;;;;;;;6.13;5.05;;;;;;;24.98;51.91;101024.03;5010404;28;20065;-73
2021/08/21 06:21:58;;;;;;;3.95;2.05;;;;;;;25.08;51.21;101011.25;5009196;28;20069;-72
2021/08/21 06:24:24;;;;;;;5.72;2.33;;;;;;;25.01;51.83;101022.44;5010431;28;20030;-73
2021/08/21 06:26:50;;;;;;;10.02;5.93;;;;;;;25.03;51.57;101023.66;5010351;28;20033;-73
2021/08/21 06:29:15;;;;;;;4.60;2.63;;;;;;;25.04;51.95;101016.06;5010182;28;20075;-73
2021/08/21 06:31:42;;;;;;;5.38;3.33;;;;;;;24.94;52.43;101026.06;5010276;28;20070;-73
2021/08/21 06:34:07;;;;;;;12.30;10.27;;;;;;;24.98;51.82;101028.84;5010279;28;20030;-73
2021/08/21 06:36:33;;;;;;;7.80;4.68;;;;;;;25.02;51.82;101021.25;5010133;28;20033;-72
2021/08/21 06:38:59;;;;;;;7.28;3.25;;;;;;;25.08;51.84;101014.03;5010077;28;20030;-72
2021/08/21 06:41:25;;;;;;;8.15;3.75;;;;;;;25.02;51.69;101015.66;5010493;28;20030;-72
2021/08/21 06:43:51;;;;;;;7.20;3.00;;;;;;;25.00;52.07;101010.44;5008602;28;20519;-72
2021/08/21 06:46:16;;;;;;;4.88;2.25;;;;;;;24.95;52.32;101022.06;5010138;28;20093;-72
2021/08/21 06:48:42;;;;;;;5.20;2.47;;;;;;;25.01;51.97;101011.25;5010104;28;20083;-72
2021/08/21 06:51:07;;;;;;;15.55;4.43;;;;;;;25.08;51.98;101008.44;5009999;28;20499;-72
2021/08/21 06:53:35;;;;;;;11.38;8.73;;;;;;;25.00;52.61;101018.03;5010063;28;20392;-73
2021/08/21 06:56:01;;;;;;;7.45;3.85;;;;;;;24.97;52.53;101024.44;5009924;28;20026;-72
2021/08/21 06:58:30;;;;;;;8.52;5.70;;;;;;;24.83;52.89;101026.09;5009953;28;20071;-72
2021/08/21 07:00:56;;;;;;;4.85;3.28;;;;;;;24.98;52.55;101020.44;5009952;28;20053;-73
2021/08/21 07:03:22;;;;;;;5.18;2.47;;;;;;;24.96;52.53;101020.06;5009634;28;20033;-74
2021/08/21 07:05:48;;;;;;;4.65;3.65;;;;;;;24.76;53.18;101019.72;5009990;28;20476;-73
2021/08/21 07:08:13;;;;;;;5.97;2.42;;;;;;;24.76;53.36;101020.50;5013431;28;20059;-73
2021/08/21 07:10:40;;;;;;;5.82;2.70;;;;;;;24.75;53.31;101023.72;5013359;28;20029;-73
2021/08/21 07:13:06;;;;;;;3.97;1.58;;;;;;;24.80;53.35;101018.53;5013425;28;20109;-73
2021/08/21 07:15:32;;;;;;;6.82;2.92;;;;;;;24.71;53.42;101012.56;5013217;28;20489;-72
2021/08/21 07:17:57;;;;;;;6.72;2.42;;;;;;;24.73;53.28;101015.75;5028467;28;20033;-72
2021/08/21 07:20:23;;;;;;;7.30;6.63;;;;;;;24.52;54.05;101007.41;5012017;28;20070;-72
2021/08/21 07:22:49;;;;;;;6.53;4.30;;;;;;;24.65;53.62;101021.75;5011918;28;20059;-72
2021/08/21 07:25:14;;;;;;;9.40;8.70;;;;;;;24.84;52.76;101010.91;5013178;28;20106;-72
2021/08/21 07:27:40;;;;;;;4.60;1.40;;;;;;;24.80;53.09;101012.94;5012964;28;20045;-72
2021/08/21 07:30:07;;;;;;;5.15;1.70;;;;;;;24.85;52.54;101015.28;5013121;28;20025;-72
2021/08/21 07:32:34;;;;;;;4.03;2.25;;;;;;;24.83;52.79;101020.50;5013044;28;20026;-73
2021/08/21 07:35:00;;;;;;;7.20;3.03;;;;;;;24.93;52.19;101021.66;5012969;28;20427;-73
2021/08/21 07:37:26;;;;;;;6.93;2.60;;;;;;;24.91;52.33;101018.47;5011747;28;20026;-72
2021/08/21 07:39:52;;;;;;;4.65;3.03;;;;;;;24.96;52.36;101022.88;5011617;28;20034;-72
2021/08/21 07:42:17;;;;;;;8.73;3.85;;;;;;;24.81;52.90;101022.09;5028103;28;20025;-74
2021/08/21 07:44:43;;;;;;;8.27;3.83;;;;;;;24.78;52.79;101023.69;5012806;28;20061;-73
2021/08/21 07:47:09;;;;;;;10.50;4.93;;;;;;;24.60;53.13;101025.75;5012812;28;20029;-73
2021/08/21 07:49:35;;;;;;;4.32;2.88;;;;;;;24.90;52.61;101014.09;5012724;28;20018;-73
2021/08/21 07:52:00;;;;;;;7.53;2.28;;;;;;;24.83;52.49;101025.28;5012759;28;20476;-74
2021/08/21 07:54:26;;;;;;;8.07;2.92;;;;;;;24.90;52.42;101025.28;5012676;28;20026;-73
2021/08/21 07:56:52;;;;;;;9.48;3.08;;;;;;;24.87;52.63;101031.69;5012612;28;20106;-73
2021/08/21 07:59:17;;;;;;;7.35;4.13;;;;;;;24.92;52.81;101023.66;5012895;28;20429;-74
2021/08/21 08:01:43;;;;;;;7.57;2.40;;;;;;;24.76;53.35;101026.09;5011379;28;20552;-73
2021/08/21 08:04:08;;;;;;;6.07;3.28;;;;;;;25.01;52.79;101025.22;5012578;28;20079;-73
2021/08/21 08:06:34;;;;;;;5.38;2.42;;;;;;;25.12;52.07;101018.44;5012633;28;20082;-73
2021/08/21 08:08:59;;;;;;;4.47;2.38;;;;;;;25.09;52.46;101021.22;5012824;28;20508;-73
2021/08/21 08:11:25;;;;;;;7.40;2.65;;;;;;;24.86;53.27;101025.28;5012429;28;20026;-73
2021/08/21 08:13:51;;;;;;;8.15;3.17;;;;;;;24.93;53.06;101030.03;5012251;28;20034;-73
2021/08/21 08:16:16;;;;;;;7.43;2.75;;;;;;;25.11;52.53;101019.63;5012294;28;20490;-73
2021/08/21 08:18:42;;;;;;;6.88;3.13;;;;;;;25.07;52.63;101032.03;5011943;28;20029;-72
2021/08/21 08:21:10;;;;;;;5.35;2.72;;;;;;;25.16;52.74;101018.41;5012282;28;20061;-71
2021/08/21 08:23:35;;;;;;;6.72;2.42;;;;;;;25.23;52.39;101015.56;5011977;28;20026;-72
2021/08/21 08:26:01;;;;;;;7.88;2.83;;;;;;;25.13;52.80;101022.03;5012447;28;20148;-72
2021/08/21 08:28:26;;;;;;;6.45;3.63;;;;;;;25.15;53.05;101023.19;5025841;28;20053;-72
2021/08/21 08:30:54;;;;;;;10.25;4.05;;;;;;;25.28;52.71;101022.75;5030599;28;20506;-72
2021/08/21 08:33:22;;;;;;;7.13;6.03;;;;;;;25.16;53.46;101026.78;5031871;28;20025;-72
2021/08/21 08:35:48;;;;;;;14.65;12.50;;;;;;;25.07;53.52;101020.84;5032064;28;20387;-72
2021/08/21 08:38:13;;;;;;;4.40;3.70;;;;;;;25.28;53.02;101020.75;5022532;28;20029;-73
2021/08/21 08:40:39;;;;;;;9.60;3.65;;;;;;;25.25;53.02;101024.38;5015190;28;20064;-73
2021/08/21 08:43:05;;;;;;;8.75;2.58;;;;;;;25.23;53.15;101017.56;5015395;28;20026;-72
2021/08/21 08:45:31;;;;;;;15.50;9.23;;;;;;;25.35;52.71;101020.72;5014946;28;20205;-74
2021/08/21 08:47:58;;;;;;;7.50;3.58;;;;;;;25.39;52.80;101035.50;5015222;28;20117;-72
2021/08/21 08:50:24;;;;;;;9.63;6.55;;;;;;;25.41;52.94;101018.31;5015095;28;20082;-74
2021/08/21 08:52:51;;;;;;;5.07;2.33;;;;;;;25.38;52.52;101019.09;5015332;28;20033;-72
2021/08/21 08:55:17;;;;;;;6.43;2.40;;;;;;;25.31;53.09;101017.13;5014819;28;20434;-73
2021/08/21 08:57:45;;;;;;;7.13;2.33;;;;;;;25.36;52.94;101025.09;5015003;28;20468;-73
2021/08/21 09:00:14;;;;;;;8.25;2.42;;;;;;;25.23;53.51;101023.16;5023420;28;20021;-74
2021/08/21 09:03:03;;;;;;;14.45;3.20;;;;;;;25.35;52.92;101017.91;5029800;28;20476;-74
2021/08/21 09:05:37;;;;;;;4.28;1.85;;;;;;;25.44;52.88;101012.66;5030985;28;20037;-74
2021/08/21 09:08:03;;;;;;;14.93;2.83;;;;;;;25.51;52.92;101014.63;5031412;28;20510;-73
2021/08/21 09:10:29;;;;;;;7.28;1.92;;;;;;;25.46;52.83;101013.06;5030772;28;20021;-73
2021/08/21 09:13:16;;;;;;;3.50;1.60;;;;;;;25.43;53.22;101016.69;5031283;28;20127;-73
2021/08/21 09:15:54;;;;;;;9.18;6.05;;;;;;;25.58;52.30;101019.41;5031556;28;20375;-74
2021/08/21 09:18:25;;;;;;;3.97;2.08;;;;;;;25.48;52.80;101014.66;5029933;28;20021;-73
2021/08/21 09:20:50;;;;;;;10.55;3.85;;;;;;;25.51;52.52;101013.84;5031112;28;20074;-73
2021/08/21 09:23:16;;;;;;;8.27;3.97;;;;;;;25.41;52.71;101015.50;5031118;28;20426;-73
2021/08/21 09:25:41;;;;;;;5.35;2.60;;;;;;;25.48;52.58;101018.25;5031055;28;20033;-73
2021/08/21 09:28:18;;;;;;;7.95;2.42;;;;;;;25.53;52.46;101019.81;5029371;28;20052;-73
2021/08/21 09:30:45;;;;;;;9.80;3.72;;;;;;;25.53;52.53;101014.22;5030512;28;20556;-73
2021/08/21 09:33:14;;;;;;;6.30;2.78;;;;;;;25.45;53.11;101011.47;5029316;28;20021;-74
2021/08/21 09:35:39;;;;;;;7.13;4.55;;;;;;;25.56;52.48;101022.59;5030814;28;20071;-73
2021/08/21 09:38:05;;;;;;;8.80;3.00;;;;;;;25.44;53.06;101023.06;5030933;28;20021;-73
2021/08/21 09:40:33;;;;;;;8.27;3.83;;;;;;;25.46;52.55;101018.66;5030883;28;20036;-71
2021/08/21 09:43:01;;;;;;;7.32;3.92;;;;;;;25.61;52.40;101024.16;5030774;28;20024;-73
2021/08/21 09:45:27;;;;;;;10.63;9.68;;;;;;;25.59;52.43;101023.78;5030722;28;20428;-72
2021/08/21 09:48:05;;;;;;;6.90;2.33;;;;;;;25.15;53.65;101017.59;5030717;28;20041;-72
2021/08/21 09:50:34;;;;;;;7.43;2.85;;;;;;;25.21;54.08;101020.78;5030706;28;20021;-72
2021/08/21 09:53:02;;;;;;;9.35;4.20;;;;;;;25.38;53.24;101028.28;5030598;28;20021;-72
2021/08/21 09:55:29;;;;;;;5.68;3.92;;;;;;;25.43;53.84;101029.88;5029238;28;20085;-72
2021/08/21 09:58:02;;;;;;;7.88;3.33;;;;;;;25.61;53.35;101021.38;5030515;28;20017;-72
2021/08/21 10:00:30;;;;;;;9.77;3.15;;;;;;;25.77;53.23;101023.69;5030532;28;20052;-72
2021/08/21 10:02:59;;;;;;;6.60;2.67;;;;;;;26.09;52.48;101020.66;5028913;28;20023;-72
2021/08/21 10:05:26;;;;;;;6.55;2.97;;;;;;;26.09;52.87;101018.66;5030395;28;20425;-72
2021/08/21 10:08:05;;;;;;;8.73;5.95;;;;;;;26.26;52.79;101020.50;5030487;28;20484;-73
2021/08/21 10:10:50;;;;;;;8.90;3.42;;;;;;;26.20;53.04;101032.56;5030380;28;20032;-74
2021/08/21 10:13:24;;;;;;;6.50;2.58;;;;;;;26.20;52.99;101022.16;5029961;28;20498;-73
2021/08/21 10:15:51;;;;;;;8.25;3.20;;;;;;;26.33;52.78;101022.44;5030252;28;20038;-73
2021/08/21 10:18:21;;;;;;;7.15;3.30;;;;;;;26.60;52.01;101027.41;5029043;28;20032;-73
2021/08/21 10:20:46;;;;;;;5.82;3.38;;;;;;;26.66;51.97;101025.75;5030187;28;20112;-72
2021/08/21 10:23:16;;;;;;;5.15;2.92;;;;;;;26.64;52.27;101026.19;5030190;28;20143;-73
2021/08/21 10:25:53;;;;;;;10.55;3.30;;;;;;;26.72;51.79;101029.69;5029988;28;20053;-73
2021/08/21 10:28:21;;;;;;;6.10;2.97;;;;;;;26.87;51.69;101022.72;5029855;28;20045;-72
2021/08/21 10:30:49;;;;;;;6.38;2.30;;;;;;;26.99;51.52;101022.19;5028840;28;20068;-75
2021/08/21 10:33:15;;;;;;;9.20;2.70;;;;;;;27.04;50.95;101027.34;5028555;28;20130;-72
2021/08/21 10:35:54;;;;;;;5.85;2.92;;;;;;;26.93;51.46;101029.47;5028451;28;20030;-72
2021/08/21 10:38:38;;;;;;;3.97;1.80;;;;;;;27.00;51.55;101025.78;5029998;28;20105;-72
2021/08/21 10:41:09;;;;;;;3.40;1.83;;;;;;;27.05;51.42;101026.16;5028592;28;20034;-72
2021/08/21 10:43:48;;;;;;;5.25;1.90;;;;;;;27.07;51.29;101031.34;5029833;28;20029;-73
2021/08/21 10:46:33;;;;;;;4.47;2.05;;;;;;;27.26;51.04;101032.69;5028603;28;20036;-74
2021/08/21 10:49:03;;;;;;;4.10;2.20;;;;;;;27.32;50.86;101022.59;5028511;28;20033;-73
2021/08/21 10:51:36;;;;;;;3.42;1.63;;;;;;;27.21;50.15;101033.19;5029887;28;20025;-74
2021/08/21 10:54:27;;;;;;;5.03;1.95;;;;;;;27.34;50.41;101032.19;5028517;28;20029;-74
2021/08/21 10:56:59;;;;;;;4.90;2.08;;;;;;;27.19;50.84;101030.78;5029654;28;20120;-74
2021/08/21 10:59:44;;;;;;;2.97;1.45;;;;;;;27.41;50.33;101030.50;5029685;28;20036;-73
2021/08/21 11:02:25;;;;;;;11.18;2.95;;;;;;;27.41;50.13;101031.28;5028610;28;20703;-74
2021/08/21 11:04:51;;;;;;;3.50;2.10;;;;;;;27.45;50.11;101042.47;5029634;28;20033;-74
2021/08/21 11:07:32;;;;;;;4.13;1.85;;;;;;;27.16;50.33;101036.44;5029388;28;20108;-77
2021/08/21 11:10:18;;;;;;;6.18;1.77;;;;;;;27.46;49.44;101025.22;5029441;28;20078;-73
2021/08/21 11:12:47;;;;;;;3.45;1.30;;;;;;;27.36;49.98;101031.78;5029539;28;20026;-73
2021/08/21 11:15:15;;;;;;;4.60;2.03;;;;;;;27.23;50.21;101039.16;5029342;28;20544;-73
2021/08/21 11:17:41;;;;;;;3.80;1.38;;;;;;;27.20;50.22;101043.59;5029376;28;20104;-74
2021/08/21 11:20:37;;;;;;;6.07;1.77;;;;;;;27.34;49.26;101042.59;5029425;28;20109;-74
2021/08/21 11:23:08;;;;;;;3.65;1.70;;;;;;;27.43;49.26;101039.28;5028154;28;20037;-72
2021/08/21 11:25:40;;;;;;;3.55;1.70;;;;;;;27.41;49.12;101036.91;5029393;28;20021;-72